createdAt,value
2018-08-30T00:00:47.925Z,938.33
2018-08-30T00:01:47.916Z,938.30
2018-08-30T00:02:47.902Z,938.34
2018-08-30T00:03:47.894Z,938.34
2018-08-30T00:04:47.883Z,938.37
2018-08-30T00:05:47.879Z,938.38
2018-08-30T00:06:47.871Z,938.35
2018-08-30T00:07:47.861Z,938.32
2018-08-30T00:08:47.852Z,938.35
2018-08-30T00:09:47.844Z,938.29
2018-08-30T00:10:47.831Z,938.31
2018-08-30T00:11:47.821Z,938.29
2018-08-30T00:12:47.817Z,938.33
2018-08-30T00:13:47.808Z,938.30
2018-08-30T00:14:47.800Z,938.31
2018-08-30T00:15:47.792Z,938.34
2018-08-30T00:16:47.781Z,938.34
2018-08-30T00:17:47.973Z,938.37
2018-08-30T00:18:47.764Z,938.35
2018-08-30T00:19:47.754Z,938.33
2018-08-30T00:20:47.746Z,938.35
2018-08-30T00:21:47.737Z,938.35
2018-08-30T00:22:47.728Z,938.34
2018-08-30T00:23:47.720Z,938.31
2018-08-30T00:24:47.708Z,938.33
2018-08-30T00:25:47.702Z,938.33
2018-08-30T00:26:47.698Z,938.29
2018-08-30T00:27:47.679Z,938.31
2018-08-30T00:28:47.674Z,938.30
2018-08-30T00:29:47.763Z,938.28
2018-08-30T00:30:47.659Z,938.27
2018-08-30T00:31:47.643Z,938.27
2018-08-30T00:32:47.636Z,938.26
2018-08-30T00:33:47.626Z,938.28
2018-08-30T00:34:47.617Z,938.23
2018-08-30T00:35:47.608Z,938.27
2018-08-30T00:36:47.604Z,938.25
2018-08-30T00:37:47.596Z,938.22
2018-08-30T00:38:47.586Z,938.26
2018-08-30T00:39:47.573Z,938.28
2018-08-30T00:40:47.563Z,938.25
2018-08-30T00:41:47.559Z,938.27
2018-08-30T00:42:47.549Z,938.26
2018-08-30T00:43:47.535Z,938.21
2018-08-30T00:44:47.532Z,938.23
2018-08-30T00:45:47.519Z,938.23
2018-08-30T00:46:47.509Z,938.21
2018-08-30T00:47:47.499Z,938.16
2018-08-30T00:48:47.492Z,938.21
2018-08-30T00:49:47.487Z,938.21
2018-08-30T00:50:47.478Z,938.22
2018-08-30T00:51:47.468Z,938.17
2018-08-30T00:52:47.459Z,938.20
2018-08-30T00:53:47.447Z,938.16
2018-08-30T00:54:47.440Z,938.17
2018-08-30T00:55:47.432Z,938.13
2018-08-30T00:56:47.421Z,938.16
2018-08-30T00:57:47.411Z,938.14
2018-08-30T00:58:47.402Z,938.13
2018-08-30T00:59:47.396Z,938.13
2018-08-30T01:00:47.388Z,938.13
2018-08-30T01:01:47.378Z,938.13
2018-08-30T01:02:47.370Z,938.15
2018-08-30T01:03:47.355Z,938.15
2018-08-30T01:04:47.346Z,938.14
2018-08-30T01:05:47.338Z,938.22
2018-08-30T01:06:47.334Z,938.16
2018-08-30T01:07:47.325Z,938.20
2018-08-30T01:08:47.311Z,938.16
2018-08-30T01:09:47.303Z,938.19
2018-08-30T01:10:47.317Z,938.18
2018-08-30T01:11:47.292Z,938.17
2018-08-30T01:12:47.282Z,938.20
2018-08-30T01:13:47.266Z,938.15
2018-08-30T01:14:47.268Z,938.12
2018-08-30T01:15:47.251Z,938.10
2018-08-30T01:16:47.253Z,938.10
2018-08-30T01:17:47.247Z,938.12
2018-08-30T01:18:47.231Z,938.11
2018-08-30T01:19:47.211Z,938.16
2018-08-30T01:20:47.201Z,938.13
2018-08-30T01:21:47.191Z,938.12
2018-08-30T01:22:47.224Z,938.11
2018-08-30T01:23:47.201Z,938.14
2018-08-30T01:24:47.165Z,938.14
2018-08-30T01:25:47.180Z,938.12
2018-08-30T01:26:47.154Z,938.13
2018-08-30T01:27:47.155Z,938.16
2018-08-30T01:28:47.128Z,938.14
2018-08-30T01:29:47.118Z,938.16
2018-08-30T01:30:47.125Z,938.15
2018-08-30T01:31:47.103Z,938.15
2018-08-30T01:32:47.095Z,938.13
2018-08-30T01:33:47.082Z,938.14
2018-08-30T01:34:47.076Z,938.11
2018-08-30T01:35:47.061Z,938.09
2018-08-30T01:36:47.059Z,938.07
2018-08-30T01:37:47.044Z,938.11
2018-08-30T01:38:47.038Z,938.10
2018-08-30T01:39:47.040Z,938.12
2018-08-30T01:40:47.032Z,938.12
2018-08-30T01:41:47.107Z,938.10
2018-08-30T01:42:46.997Z,938.10
2018-08-30T01:43:47.001Z,938.13
2018-08-30T01:44:47.006Z,938.10
2018-08-30T01:45:46.969Z,938.07
2018-08-30T01:46:46.960Z,938.08
2018-08-30T01:47:47.050Z,938.07
2018-08-30T01:48:46.941Z,938.08
2018-08-30T01:49:46.931Z,938.05
2018-08-30T01:50:46.923Z,938.05
2018-08-30T01:51:46.912Z,938.09
2018-08-30T01:52:46.906Z,938.03
2018-08-30T01:53:46.924Z,938.09
2018-08-30T01:54:46.884Z,938.06
2018-08-30T01:55:46.906Z,938.06
2018-08-30T01:56:46.908Z,938.06
2018-08-30T01:57:46.883Z,938.12
2018-08-30T01:58:46.847Z,938.06
2018-08-30T01:59:46.877Z,938.09
2018-08-30T02:00:46.880Z,938.09
2018-08-30T02:01:46.819Z,938.11
2018-08-30T02:02:46.851Z,938.09
2018-08-30T02:03:46.800Z,938.08
2018-08-30T02:04:46.790Z,938.07
2018-08-30T02:05:46.818Z,938.03
2018-08-30T02:06:46.771Z,938.06
2018-08-30T02:07:46.761Z,938.09
2018-08-30T02:08:46.752Z,938.08
2018-08-30T02:09:46.790Z,938.05
2018-08-30T02:10:46.732Z,938.06
2018-08-30T02:11:46.863Z,938.06
2018-08-30T02:12:46.742Z,938.07
2018-08-30T02:13:46.732Z,938.10
2018-08-30T02:14:46.736Z,938.09
2018-08-30T02:15:46.684Z,938.08
2018-08-30T02:16:46.677Z,938.08
2018-08-30T02:17:46.807Z,938.05
2018-08-30T02:18:46.656Z,938.09
2018-08-30T02:19:46.679Z,938.08
2018-08-30T02:20:46.637Z,938.04
2018-08-30T02:21:46.666Z,938.06
2018-08-30T02:22:46.618Z,938.04
2018-08-30T02:23:46.654Z,938.05
2018-08-30T02:24:46.647Z,938.05
2018-08-30T02:25:46.591Z,938.01
2018-08-30T02:26:46.631Z,938.05
2018-08-30T02:27:46.569Z,938.00
2018-08-30T02:28:46.561Z,937.98
2018-08-30T02:29:46.551Z,937.99
2018-08-30T02:30:46.595Z,937.96
2018-08-30T02:31:46.576Z,937.96
2018-08-30T02:32:46.582Z,937.99
2018-08-30T02:33:46.512Z,937.94
2018-08-30T02:34:46.503Z,937.93
2018-08-30T02:35:46.512Z,937.97
2018-08-30T02:36:46.503Z,937.96
2018-08-30T02:37:46.481Z,937.96
2018-08-30T02:38:46.482Z,937.97
2018-08-30T02:39:46.470Z,937.92
2018-08-30T02:40:46.447Z,937.96
2018-08-30T02:41:46.435Z,937.94
2018-08-30T02:42:46.427Z,937.94
2018-08-30T02:43:46.416Z,937.94
2018-08-30T02:44:46.407Z,937.95
2018-08-30T02:45:46.402Z,937.88
2018-08-30T02:46:46.387Z,937.90
2018-08-30T02:47:46.576Z,937.88
2018-08-30T02:48:46.371Z,937.84
2018-08-30T02:49:46.361Z,937.86
2018-08-30T02:50:46.353Z,937.86
2018-08-30T02:51:46.345Z,937.79
2018-08-30T02:52:46.333Z,937.78
2018-08-30T02:53:46.325Z,937.81
2018-08-30T02:54:46.315Z,937.77
2018-08-30T02:55:46.301Z,937.79
2018-08-30T02:56:46.294Z,937.78
2018-08-30T02:57:46.281Z,937.76
2018-08-30T02:58:46.272Z,937.77
2018-08-30T02:59:46.365Z,937.80
2018-08-30T03:00:46.251Z,937.79
2018-08-30T03:01:46.244Z,937.79
2018-08-30T03:02:46.236Z,937.76
2018-08-30T03:03:46.223Z,937.77
2018-08-30T03:04:46.218Z,937.74
2018-08-30T03:05:46.204Z,937.74
2018-08-30T03:06:46.198Z,937.77
2018-08-30T03:07:46.183Z,937.76
2018-08-30T03:08:46.177Z,937.76
2018-08-30T03:09:46.164Z,937.76
2018-08-30T03:10:46.157Z,937.72
2018-08-30T03:11:46.142Z,937.70
2018-08-30T03:12:46.137Z,937.70
2018-08-30T03:13:46.125Z,937.71
2018-08-30T03:14:46.118Z,937.67
2018-08-30T03:15:46.110Z,937.68
2018-08-30T03:16:46.098Z,937.72
2018-08-30T03:17:46.288Z,937.71
2018-08-30T03:18:46.079Z,937.73
2018-08-30T03:19:46.069Z,937.67
2018-08-30T03:20:46.058Z,937.71
2018-08-30T03:21:46.050Z,937.70
2018-08-30T03:22:46.039Z,937.72
2018-08-30T03:23:46.030Z,937.68
2018-08-30T03:24:46.019Z,937.67
2018-08-30T03:25:46.009Z,937.67
2018-08-30T03:26:46.000Z,937.64
2018-08-30T03:27:45.990Z,937.66
2018-08-30T03:28:45.980Z,937.66
2018-08-30T03:29:45.984Z,937.64
2018-08-30T03:30:46.071Z,937.60
2018-08-30T03:31:45.950Z,937.64
2018-08-30T03:32:45.940Z,937.60
2018-08-30T03:33:45.930Z,937.64
2018-08-30T03:34:45.921Z,937.65
2018-08-30T03:35:45.910Z,937.64
2018-08-30T03:36:45.900Z,937.62
2018-08-30T03:37:45.891Z,937.64
2018-08-30T03:38:45.881Z,937.63
2018-08-30T03:39:45.871Z,937.63
2018-08-30T03:40:45.860Z,937.63
2018-08-30T03:41:45.850Z,937.60
2018-08-30T03:42:45.841Z,937.60
2018-08-30T03:43:45.830Z,937.62
2018-08-30T03:44:45.820Z,937.62
2018-08-30T03:45:45.812Z,937.59
2018-08-30T03:46:45.861Z,937.57
2018-08-30T03:47:45.991Z,937.59
2018-08-30T03:48:45.780Z,937.59
2018-08-30T03:49:45.773Z,937.62
2018-08-30T03:50:45.760Z,937.61
2018-08-30T03:51:45.750Z,937.63
2018-08-30T03:52:45.739Z,937.63
2018-08-30T03:53:45.731Z,937.65
2018-08-30T03:54:45.730Z,937.65
2018-08-30T03:55:45.714Z,937.63
2018-08-30T03:56:45.699Z,937.62
2018-08-30T03:57:45.689Z,937.61
2018-08-30T03:58:45.682Z,937.60
2018-08-30T03:59:45.669Z,937.55
2018-08-30T04:00:45.660Z,937.57
2018-08-30T04:01:45.650Z,937.51
2018-08-30T04:02:45.639Z,937.45
2018-08-30T04:03:45.633Z,937.45
2018-08-30T04:04:45.618Z,937.41
2018-08-30T04:05:45.705Z,937.41
2018-08-30T04:06:45.599Z,937.35
2018-08-30T04:07:45.587Z,937.39
2018-08-30T04:08:45.573Z,937.38
2018-08-30T04:09:45.579Z,937.34
2018-08-30T04:10:45.557Z,937.32
2018-08-30T04:11:45.643Z,937.33
2018-08-30T04:12:45.538Z,937.26
2018-08-30T04:13:45.524Z,937.23
2018-08-30T04:14:45.514Z,937.19
2018-08-30T04:15:45.506Z,937.15
2018-08-30T04:16:45.496Z,937.14
2018-08-30T04:17:45.682Z,937.12
2018-08-30T04:18:45.471Z,937.07
2018-08-30T04:19:45.465Z,937.10
2018-08-30T04:20:45.455Z,937.08
2018-08-30T04:21:45.444Z,937.11
2018-08-30T04:22:45.432Z,937.03
2018-08-30T04:23:45.434Z,937.05
2018-08-30T04:24:45.409Z,937.06
2018-08-30T04:25:45.403Z,937.08
2018-08-30T04:26:45.389Z,937.07
2018-08-30T04:27:45.379Z,937.10
2018-08-30T04:28:45.368Z,937.10
2018-08-30T04:29:45.463Z,937.10
2018-08-30T04:30:45.352Z,937.13
2018-08-30T04:31:45.341Z,937.08
2018-08-30T04:32:45.331Z,937.03
2018-08-30T04:33:45.321Z,937.12
2018-08-30T04:34:45.311Z,937.16
2018-08-30T04:35:45.300Z,937.14
2018-08-30T04:36:45.290Z,937.15
2018-08-30T04:37:45.280Z,937.17
2018-08-30T04:38:45.270Z,937.18
2018-08-30T04:39:45.259Z,937.11
2018-08-30T04:40:45.251Z,937.02
2018-08-30T04:41:45.441Z,937.07
2018-08-30T04:42:45.256Z,937.04
2018-08-30T04:43:45.219Z,936.99
2018-08-30T04:44:45.210Z,937.01
2018-08-30T04:45:45.198Z,937.03
2018-08-30T04:46:45.189Z,936.96
2018-08-30T04:47:45.177Z,936.95
2018-08-30T04:48:45.167Z,936.99
2018-08-30T04:49:45.157Z,937.02
2018-08-30T04:50:45.148Z,937.04
2018-08-30T04:51:45.137Z,937.03
2018-08-30T04:52:45.127Z,937.01
2018-08-30T04:53:45.117Z,937.00
2018-08-30T04:54:45.107Z,937.02
2018-08-30T04:55:45.096Z,937.11
2018-08-30T04:56:45.087Z,937.15
2018-08-30T04:57:45.077Z,937.21
2018-08-30T04:58:45.062Z,937.20
2018-08-30T04:59:45.155Z,937.17
2018-08-30T05:00:45.041Z,937.16
2018-08-30T05:01:45.045Z,937.13
2018-08-30T05:02:45.023Z,937.05
2018-08-30T05:03:45.022Z,937.02
2018-08-30T05:04:45.005Z,937.02
2018-08-30T05:05:44.991Z,936.99
2018-08-30T05:06:44.989Z,937.02
2018-08-30T05:07:44.971Z,937.03
2018-08-30T05:08:44.983Z,937.02
2018-08-30T05:09:44.955Z,936.96
2018-08-30T05:10:44.940Z,936.97
2018-08-30T05:11:44.931Z,936.99
2018-08-30T05:12:44.926Z,937.01
2018-08-30T05:13:44.910Z,936.97
2018-08-30T05:14:44.908Z,936.97
2018-08-30T05:15:44.889Z,936.98
2018-08-30T05:16:44.885Z,937.03
2018-08-30T05:17:44.971Z,937.03
2018-08-30T05:18:44.860Z,937.03
2018-08-30T05:19:44.851Z,936.94
2018-08-30T05:20:44.841Z,936.89
2018-08-30T05:21:44.830Z,936.95
2018-08-30T05:22:44.820Z,936.94
2018-08-30T05:23:44.811Z,936.93
2018-08-30T05:24:44.802Z,936.92
2018-08-30T05:25:44.794Z,936.91
2018-08-30T05:26:44.784Z,936.93
2018-08-30T05:27:44.776Z,936.93
2018-08-30T05:28:44.765Z,936.93
2018-08-30T05:29:44.902Z,936.91
2018-08-30T05:30:44.746Z,936.92
2018-08-30T05:31:44.732Z,936.87
2018-08-30T05:32:44.722Z,936.89
2018-08-30T05:33:44.716Z,936.90
2018-08-30T05:34:44.705Z,936.85
2018-08-30T05:35:44.983Z,936.85
2018-08-30T05:36:44.682Z,936.86
2018-08-30T05:37:44.675Z,936.82
2018-08-30T05:38:44.662Z,936.79
2018-08-30T05:39:44.656Z,936.79
2018-08-30T05:40:44.643Z,936.79
2018-08-30T05:41:44.632Z,936.77
2018-08-30T05:42:44.623Z,936.74
2018-08-30T05:43:44.618Z,936.74
2018-08-30T05:44:44.656Z,936.68
2018-08-30T05:45:44.598Z,936.72
2018-08-30T05:46:44.591Z,936.79
2018-08-30T05:47:44.672Z,936.75
2018-08-30T05:48:44.566Z,936.74
2018-08-30T05:49:44.553Z,936.74
2018-08-30T05:50:44.543Z,936.74
2018-08-30T05:51:44.531Z,936.77
2018-08-30T05:52:44.526Z,936.76
2018-08-30T05:53:44.712Z,936.75
2018-08-30T05:54:44.504Z,936.71
2018-08-30T05:55:44.493Z,936.69
2018-08-30T05:56:44.543Z,936.74
2018-08-30T05:57:44.476Z,936.70
2018-08-30T05:58:44.466Z,936.68
2018-08-30T05:59:44.454Z,936.71
2018-08-30T06:00:44.445Z,936.72
2018-08-30T06:01:44.433Z,936.69
2018-08-30T06:02:44.426Z,936.75
2018-08-30T06:03:44.416Z,936.71
2018-08-30T06:04:44.403Z,936.68
2018-08-30T06:05:44.595Z,936.66
2018-08-30T06:06:44.383Z,936.65
2018-08-30T06:07:44.375Z,936.68
2018-08-30T06:08:44.362Z,936.65
2018-08-30T06:09:44.353Z,936.64
2018-08-30T06:10:44.342Z,936.68
2018-08-30T06:11:44.539Z,936.71
2018-08-30T06:12:44.323Z,936.71
2018-08-30T06:13:44.316Z,936.68
2018-08-30T06:14:44.303Z,936.64
2018-08-30T06:15:44.292Z,936.59
2018-08-30T06:16:44.281Z,936.60
2018-08-30T06:17:44.376Z,936.57
2018-08-30T06:18:44.262Z,936.57
2018-08-30T06:19:44.251Z,936.57
2018-08-30T06:20:44.242Z,936.58
2018-08-30T06:21:44.232Z,936.56
2018-08-30T06:22:44.220Z,936.57
2018-08-30T06:23:44.211Z,936.56
2018-08-30T06:24:44.204Z,936.57
2018-08-30T06:25:44.191Z,936.58
2018-08-30T06:26:44.191Z,936.53
2018-08-30T06:27:44.174Z,936.56
2018-08-30T06:28:44.160Z,936.52
2018-08-30T06:29:44.151Z,936.57
2018-08-30T06:30:44.140Z,936.57
2018-08-30T06:31:44.128Z,936.55
2018-08-30T06:32:44.187Z,936.51
2018-08-30T06:33:44.109Z,936.52
2018-08-30T06:34:44.150Z,936.54
2018-08-30T06:35:44.190Z,936.51
2018-08-30T06:36:44.079Z,936.57
2018-08-30T06:37:44.071Z,936.54
2018-08-30T06:38:44.093Z,936.60
2018-08-30T06:39:44.049Z,936.60
2018-08-30T06:40:44.039Z,936.61
2018-08-30T06:41:44.028Z,936.62
2018-08-30T06:42:44.018Z,936.64
2018-08-30T06:43:44.011Z,936.61
2018-08-30T06:44:43.998Z,936.63
2018-08-30T06:45:43.989Z,936.60
2018-08-30T06:46:43.978Z,936.62
2018-08-30T06:47:43.968Z,936.66
2018-08-30T06:48:44.051Z,936.61
2018-08-30T06:49:43.948Z,936.62
2018-08-30T06:50:43.936Z,936.59
2018-08-30T06:51:43.927Z,936.60
2018-08-30T06:52:43.915Z,936.61
2018-08-30T06:53:44.106Z,936.58
2018-08-30T06:54:43.896Z,936.53
2018-08-30T06:55:43.885Z,936.56
2018-08-30T06:56:43.874Z,936.59
2018-08-30T06:57:43.865Z,936.59
2018-08-30T06:58:43.854Z,936.59
2018-08-30T06:59:43.944Z,936.58
2018-08-30T07:00:43.834Z,936.56
2018-08-30T07:01:43.822Z,936.56
2018-08-30T07:02:43.813Z,936.57
2018-08-30T07:03:43.803Z,936.57
2018-08-30T07:04:43.791Z,936.55
2018-08-30T07:05:43.784Z,936.55
2018-08-30T07:06:43.771Z,936.55
2018-08-30T07:07:43.760Z,936.62
2018-08-30T07:08:43.754Z,936.60
2018-08-30T07:09:43.745Z,936.58
2018-08-30T07:10:43.734Z,936.59
2018-08-30T07:11:43.718Z,936.58
2018-08-30T07:12:43.708Z,936.55
2018-08-30T07:13:43.701Z,936.57
2018-08-30T07:14:43.792Z,936.56
2018-08-30T07:15:43.676Z,936.57
2018-08-30T07:16:43.673Z,936.53
2018-08-30T07:17:43.860Z,936.53
2018-08-30T07:18:43.647Z,936.59
2018-08-30T07:19:43.638Z,936.57
2018-08-30T07:20:43.624Z,936.59
2018-08-30T07:21:43.619Z,936.56
2018-08-30T07:22:43.604Z,936.62
2018-08-30T07:23:43.594Z,936.60
2018-08-30T07:24:43.587Z,936.57
2018-08-30T07:25:43.572Z,936.62
2018-08-30T07:26:43.561Z,936.62
2018-08-30T07:27:43.552Z,936.64
2018-08-30T07:28:43.550Z,936.65
2018-08-30T07:29:43.525Z,936.68
2018-08-30T07:30:43.524Z,936.66
2018-08-30T07:31:43.505Z,936.64
2018-08-30T07:32:43.493Z,936.65
2018-08-30T07:33:43.483Z,936.62
2018-08-30T07:34:43.505Z,936.65
2018-08-30T07:35:43.661Z,936.62
2018-08-30T07:36:43.450Z,936.64
2018-08-30T07:37:43.442Z,936.63
2018-08-30T07:38:43.439Z,936.61
2018-08-30T07:39:43.429Z,936.62
2018-08-30T07:40:43.419Z,936.61
2018-08-30T07:41:43.510Z,936.63
2018-08-30T07:42:43.387Z,936.60
2018-08-30T07:43:43.387Z,936.61
2018-08-30T07:44:43.366Z,936.61
2018-08-30T07:45:43.356Z,936.64
2018-08-30T07:46:43.344Z,936.64
2018-08-30T07:47:43.477Z,936.65
2018-08-30T07:48:43.337Z,936.64
2018-08-30T07:49:43.312Z,936.64
2018-08-30T07:50:43.303Z,936.62
2018-08-30T07:51:43.290Z,936.66
2018-08-30T07:52:43.280Z,936.63
2018-08-30T07:53:43.269Z,936.64
2018-08-30T07:54:43.263Z,936.66
2018-08-30T07:55:43.246Z,936.65
2018-08-30T07:56:43.236Z,936.69
2018-08-30T07:57:43.225Z,936.68
2018-08-30T07:58:43.215Z,936.74
2018-08-30T07:59:43.203Z,936.75
2018-08-30T08:00:43.192Z,936.76
2018-08-30T08:01:43.182Z,936.75
2018-08-30T08:02:43.174Z,936.74
2018-08-30T08:03:43.160Z,936.74
2018-08-30T08:04:43.149Z,936.72
2018-08-30T08:05:43.240Z,936.76
2018-08-30T08:06:43.127Z,936.78
2018-08-30T08:07:43.116Z,936.77
2018-08-30T08:08:43.105Z,936.79
2018-08-30T08:09:43.094Z,936.83
2018-08-30T08:10:43.109Z,936.89
2018-08-30T08:11:43.072Z,936.89
2018-08-30T08:12:43.097Z,936.87
2018-08-30T08:13:43.051Z,936.87
2018-08-30T08:14:43.040Z,936.88
2018-08-30T08:15:43.028Z,936.89
2018-08-30T08:16:43.023Z,936.90
2018-08-30T08:17:43.009Z,936.89
2018-08-30T08:18:42.997Z,936.89
2018-08-30T08:19:42.985Z,936.91
2018-08-30T08:20:42.974Z,936.88
2018-08-30T08:21:42.963Z,936.89
2018-08-30T08:22:42.952Z,937.03
2018-08-30T08:23:42.945Z,936.97
2018-08-30T08:24:42.930Z,937.00
2018-08-30T08:25:42.920Z,937.02
2018-08-30T08:26:42.909Z,937.03
2018-08-30T08:27:42.896Z,936.98
2018-08-30T08:28:42.887Z,936.97
2018-08-30T08:29:42.975Z,936.99
2018-08-30T08:30:42.867Z,936.95
2018-08-30T08:31:42.853Z,936.97
2018-08-30T08:32:42.842Z,936.99
2018-08-30T08:33:42.833Z,937.00
2018-08-30T08:34:42.820Z,937.02
2018-08-30T08:35:43.009Z,937.02
2018-08-30T08:36:42.798Z,937.00
2018-08-30T08:37:42.787Z,937.03
2018-08-30T08:38:42.777Z,937.05
2018-08-30T08:39:42.764Z,937.10
2018-08-30T08:40:42.754Z,937.09
2018-08-30T08:41:42.743Z,937.08
2018-08-30T08:42:42.732Z,937.11
2018-08-30T08:43:42.720Z,937.13
2018-08-30T08:44:42.712Z,937.12
2018-08-30T08:45:42.699Z,937.13
2018-08-30T08:46:42.691Z,937.14
2018-08-30T08:47:42.737Z,937.11
2018-08-30T08:48:42.666Z,937.05
2018-08-30T08:49:42.656Z,937.09
2018-08-30T08:50:42.644Z,937.12
2018-08-30T08:51:42.633Z,937.16
2018-08-30T08:52:42.623Z,937.18
2018-08-30T08:53:42.651Z,937.18
2018-08-30T08:54:42.600Z,937.20
2018-08-30T08:55:42.589Z,937.17
2018-08-30T08:56:42.581Z,937.20
2018-08-30T08:57:42.570Z,937.20
2018-08-30T08:58:42.565Z,937.21
2018-08-30T08:59:42.645Z,937.20
2018-08-30T09:00:42.533Z,937.26
2018-08-30T09:01:42.523Z,937.24
2018-08-30T09:02:42.511Z,937.25
2018-08-30T09:03:42.499Z,937.24
2018-08-30T09:04:42.492Z,937.26
2018-08-30T09:05:42.478Z,937.20
2018-08-30T09:06:42.467Z,937.22
2018-08-30T09:07:42.538Z,937.25
2018-08-30T09:08:42.444Z,937.25
2018-08-30T09:09:42.433Z,937.24
2018-08-30T09:10:42.422Z,937.23
2018-08-30T09:11:42.417Z,937.24
2018-08-30T09:12:42.409Z,937.25
2018-08-30T09:13:42.389Z,937.24
2018-08-30T09:14:42.383Z,937.23
2018-08-30T09:15:42.366Z,937.29
2018-08-30T09:16:42.355Z,937.26
2018-08-30T09:17:42.347Z,937.22
2018-08-30T09:18:42.334Z,937.24
2018-08-30T09:19:42.322Z,937.23
2018-08-30T09:20:42.311Z,937.25
2018-08-30T09:21:42.300Z,937.23
2018-08-30T09:22:42.289Z,937.23
2018-08-30T09:23:42.278Z,937.23
2018-08-30T09:24:42.267Z,937.25
2018-08-30T09:25:42.256Z,937.28
2018-08-30T09:26:42.286Z,937.27
2018-08-30T09:27:42.234Z,937.28
2018-08-30T09:28:42.223Z,937.33
2018-08-30T09:29:42.212Z,937.30
2018-08-30T09:30:42.201Z,937.35
2018-08-30T09:31:42.193Z,937.36
2018-08-30T09:32:42.181Z,937.37
2018-08-30T09:33:42.182Z,937.35
2018-08-30T09:34:42.158Z,937.36
2018-08-30T09:35:42.148Z,937.34
2018-08-30T09:36:42.138Z,937.33
2018-08-30T09:37:42.124Z,937.35
2018-08-30T09:38:42.119Z,937.35
2018-08-30T09:39:42.102Z,937.35
2018-08-30T09:40:42.092Z,937.34
2018-08-30T09:41:42.082Z,937.36
2018-08-30T09:42:42.069Z,937.36
2018-08-30T09:43:42.109Z,937.40
2018-08-30T09:44:42.047Z,937.35
2018-08-30T09:45:42.036Z,937.36
2018-08-30T09:46:42.026Z,937.36
2018-08-30T09:47:42.014Z,937.32
2018-08-30T09:48:42.015Z,937.37
2018-08-30T09:49:42.056Z,937.35
2018-08-30T09:50:41.982Z,937.31
2018-08-30T09:51:41.970Z,937.32
2018-08-30T09:52:41.960Z,937.30
2018-08-30T09:53:41.948Z,937.33
2018-08-30T09:54:41.941Z,937.35
2018-08-30T09:55:41.955Z,937.33
2018-08-30T09:56:41.974Z,937.36
2018-08-30T09:57:41.909Z,937.39
2018-08-30T09:58:41.894Z,937.37
2018-08-30T09:59:41.882Z,937.38
2018-08-30T10:00:41.872Z,937.38
2018-08-30T10:01:41.860Z,937.40
2018-08-30T10:02:41.852Z,937.35
2018-08-30T10:03:41.872Z,937.35
2018-08-30T10:04:41.877Z,937.35
2018-08-30T10:05:41.819Z,937.39
2018-08-30T10:06:41.807Z,937.39
2018-08-30T10:07:41.796Z,937.39
2018-08-30T10:08:41.793Z,937.40
2018-08-30T10:09:41.775Z,937.41
2018-08-30T10:10:41.764Z,937.45
2018-08-30T10:11:41.952Z,937.45
2018-08-30T10:12:41.742Z,937.44
2018-08-30T10:13:41.732Z,937.48
2018-08-30T10:14:41.723Z,937.52
2018-08-30T10:15:41.715Z,937.53
2018-08-30T10:16:41.700Z,937.50
2018-08-30T10:17:41.890Z,937.49
2018-08-30T10:18:41.678Z,937.52
2018-08-30T10:19:41.667Z,937.53
2018-08-30T10:20:41.655Z,937.55
2018-08-30T10:21:41.646Z,937.57
2018-08-30T10:22:41.641Z,937.57
2018-08-30T10:23:41.624Z,937.57
2018-08-30T10:24:41.614Z,937.60
2018-08-30T10:25:41.644Z,937.57
2018-08-30T10:26:41.593Z,937.58
2018-08-30T10:27:41.582Z,937.60
2018-08-30T10:28:41.571Z,937.60
2018-08-30T10:29:41.565Z,937.55
2018-08-30T10:30:41.552Z,937.55
2018-08-30T10:31:41.619Z,937.54
2018-08-30T10:32:41.530Z,937.60
2018-08-30T10:33:41.519Z,937.63
2018-08-30T10:34:41.509Z,937.62
2018-08-30T10:35:41.499Z,937.68
2018-08-30T10:36:41.489Z,937.65
2018-08-30T10:37:41.477Z,937.69
2018-08-30T10:38:41.466Z,937.70
2018-08-30T10:39:41.457Z,937.71
2018-08-30T10:40:41.445Z,937.73
2018-08-30T10:41:41.441Z,937.68
2018-08-30T10:42:41.425Z,937.69
2018-08-30T10:43:41.414Z,937.74
2018-08-30T10:44:41.404Z,937.73
2018-08-30T10:45:41.394Z,937.72
2018-08-30T10:46:41.384Z,937.74
2018-08-30T10:47:41.373Z,937.73
2018-08-30T10:48:41.363Z,937.71
2018-08-30T10:49:41.404Z,937.72
2018-08-30T10:50:41.343Z,937.72
2018-08-30T10:51:41.378Z,937.71
2018-08-30T10:52:41.322Z,937.71
2018-08-30T10:53:41.313Z,937.73
2018-08-30T10:54:41.301Z,937.73
2018-08-30T10:55:41.290Z,937.69
2018-08-30T10:56:41.280Z,937.72
2018-08-30T10:57:41.271Z,937.71
2018-08-30T10:58:41.263Z,937.67
2018-08-30T10:59:41.249Z,937.68
2018-08-30T11:00:41.240Z,937.70
2018-08-30T11:01:41.229Z,937.71
2018-08-30T11:02:41.220Z,937.71
2018-08-30T11:03:41.209Z,937.71
2018-08-30T11:04:41.200Z,937.77
2018-08-30T11:05:41.189Z,937.73
2018-08-30T11:06:41.181Z,937.75
2018-08-30T11:07:41.171Z,937.75
2018-08-30T11:08:41.163Z,937.73
2018-08-30T11:09:41.149Z,937.75
2018-08-30T11:10:41.139Z,937.72
2018-08-30T11:11:41.128Z,937.75
2018-08-30T11:12:41.130Z,937.75
2018-08-30T11:13:41.109Z,937.76
2018-08-30T11:14:41.099Z,937.72
2018-08-30T11:15:41.088Z,937.76
2018-08-30T11:16:41.078Z,937.76
2018-08-30T11:17:41.171Z,937.74
2018-08-30T11:18:41.060Z,937.76
2018-08-30T11:19:41.049Z,937.74
2018-08-30T11:20:41.039Z,937.73
2018-08-30T11:21:41.029Z,937.75
2018-08-30T11:22:41.019Z,937.79
2018-08-30T11:23:41.008Z,937.80
2018-08-30T11:24:41.000Z,937.82
2018-08-30T11:25:40.995Z,937.84
2018-08-30T11:26:40.980Z,937.83
2018-08-30T11:27:40.969Z,937.82
2018-08-30T11:28:40.959Z,937.75
2018-08-30T11:29:41.165Z,937.80
2018-08-30T11:30:40.940Z,937.82
2018-08-30T11:31:40.932Z,937.85
2018-08-30T11:32:40.921Z,937.86
2018-08-30T11:33:40.911Z,937.82
2018-08-30T11:34:40.906Z,937.86
2018-08-30T11:35:40.891Z,937.86
2018-08-30T11:36:40.881Z,937.84
2018-08-30T11:37:40.923Z,937.86
2018-08-30T11:38:40.862Z,937.88
2018-08-30T11:39:40.852Z,937.87
2018-08-30T11:40:40.843Z,937.90
2018-08-30T11:41:40.890Z,937.89
2018-08-30T11:42:40.823Z,937.92
2018-08-30T11:43:40.813Z,937.91
2018-08-30T11:44:40.804Z,937.91
2018-08-30T11:45:40.799Z,937.93
2018-08-30T11:46:40.785Z,937.94
2018-08-30T11:47:40.776Z,937.91
2018-08-30T11:48:40.766Z,937.91
2018-08-30T11:49:40.758Z,937.92
2018-08-30T11:50:40.752Z,937.91
2018-08-30T11:51:40.743Z,937.94
2018-08-30T11:52:40.790Z,937.90
2018-08-30T11:53:40.721Z,937.90
2018-08-30T11:54:40.711Z,937.94
2018-08-30T11:55:40.702Z,937.90
2018-08-30T11:56:40.695Z,937.95
2018-08-30T11:57:40.685Z,937.91
2018-08-30T11:58:40.876Z,937.91
2018-08-30T11:59:40.669Z,937.95
2018-08-30T12:00:40.730Z,937.90
2018-08-30T12:01:40.650Z,937.92
2018-08-30T12:02:40.648Z,937.94
2018-08-30T12:03:40.632Z,937.93
2018-08-30T12:04:40.641Z,937.95
2018-08-30T12:05:40.626Z,937.92
2018-08-30T12:06:40.611Z,937.96
2018-08-30T12:07:40.625Z,937.92
2018-08-30T12:08:40.596Z,937.92
2018-08-30T12:09:40.589Z,937.90
2018-08-30T12:10:40.643Z,937.88
2018-08-30T12:11:40.596Z,937.91
2018-08-30T12:12:40.585Z,937.92
2018-08-30T12:13:40.571Z,937.92
2018-08-30T12:14:40.544Z,937.88
2018-08-30T12:15:40.540Z,937.91
2018-08-30T12:16:40.534Z,937.86
2018-08-30T12:17:40.522Z,937.89
2018-08-30T12:18:40.575Z,937.94
2018-08-30T12:19:40.506Z,937.89
2018-08-30T12:20:40.609Z,937.88
2018-08-30T12:21:40.491Z,937.90
2018-08-30T12:22:40.485Z,937.92
2018-08-30T12:23:40.488Z,937.94
2018-08-30T12:24:40.472Z,937.95
2018-08-30T12:25:40.470Z,937.99
2018-08-30T12:26:40.457Z,937.97
2018-08-30T12:27:40.452Z,937.98
2018-08-30T12:28:40.568Z,937.96